Rolla, North Dakota
Current Conditions -  °F | °C
As of 9:55 AM on Sunday 23 Nov 2014 (Local Time) from K06D Reporting Station
Overcast Overcast  
Wind Chill: -8°   Ceiling: 1800
Heat Index: -3°   Visibility: 10mi
Dew Point: -3°   Wind: 9mph
Humidity: 100%   Direction: 360°N
Pressure: 29.39"   Gusts: NA
Location:  48.86°N, 99.62°W
Report Text: K06D 231555Z AUTO 36008KT 10SM OVC018 M03/M03 A2939 RMK AO2
Loading
Personal Weather Stations






























Interactive Weather Map New forecast layout! Learn more

10-Day Weather Forecast

Advertisements
Track Severe Weather on mobile